Terminal Aerodrome Forecast
Issued by NWS

Home | Current Version | Previous Version | Text Only | Print | Product List | Glossary On
Versions: 1 2 3 4 5 6 7 8 9 10 11 12 13 14 15 16 17 18 19
385
FTUS42 KTBW 201132
TAFRSW
TAF
KRSW 201132Z 2012/2112 VRB03KT P6SM VCTS SCT025CB SCT080 BKN250
      TEMPO 2012/2015 3SM TSRA BKN025CB
     FM201500 VRB03KT P6SM VCTS SCT035CB SCT080 BKN250
     FM201900 26007KT P6SM SHRA VCTS BKN045CB BKN100
     FM210200 VRB03KT P6SM SCT250=

USA.gov is the U.S. government's official web portal to all federal, state and local government web resources and services.